Barracao, Brazil
Current Conditions -  °F | °C
As of 3:00 AM on Saturday 20 Dec 2014 (Local Time) from SARI Reporting Station
Clear Clear  
Wind Chill: 75°   Ceiling: Unl
Heat Index: 75°   Visibility: 6mi
Dew Point: 75°   Wind: 5mph
Humidity: 100%   Direction: 50°NE
Pressure: 29.71"   Gusts: NA
Location:  26.25°S, 53.63°W
Report Text: SARI 200500Z 05004KT CAVOK 24/24 Q1006
Loading
Personal Weather Stations






























Interactive Weather Map New forecast layout! Learn more

10-Day Weather Forecast

Advertisements
Track Severe Weather on mobile